IDPK1: Verdigris River, Independence

Data processed at Wed May 22 2019 23:50


All information presented herein is the property of the government of the United States of America and may be revised or deleted at any time without prior notice.
Dissemination of this information without the expressed written consent of the Public Affairs Office, Tulsa District U.S. Army Corps of Engineers is strictly prohibited.
These data are gathered electronically and, as presented, have not undergone any form of quality control. These data are not guaranteed to be valid or correct.
Go to home page.
Go to station list.
Go to home page.

Upstream stations:

Downstream station:
Previous Day
Next Day
Current Day
    
SHEF ID:       IDPK1     VERDIGRIS R AT INDEPENDENCE, KS
STATION TYPE:  
Regulating: Stage =    30.00, Flow =    22615

               PRECIP     STAGE  RIV-FLOW  BAT-LOAD
                   in        ft       cfs      volt
              Ccp-Rev   Ccp-Rev   Ccp-Rev   Ccp-Rev
(US/Central)
05/22 00:00      0.00     39.73     39862     12.77
05/22 01:00      0.00     39.95     40966     12.71
05/22 02:00      0.00     40.27     42613     12.71
05/22 03:00      0.00     40.32     42874     12.71
05/22 04:00      0.00     40.60     44363     12.60
05/22 05:00      0.00     40.81     45505     12.65
05/22 06:00      0.00     41.00     46558     12.60
05/22 07:00      0.00     41.16     47458     12.60
05/22 08:00      0.00     41.31     48314     12.83
05/22 09:00      0.00     41.52     49532     13.36
05/22 10:00      0.00     41.57     49826     13.36
05/22 11:00      0.00     41.68     50476     13.53
05/22 12:00      0.00     41.79     51133     13.18
05/22 13:00      0.00     41.68     50476     13.30
05/22 14:00      0.00     41.87     51611     13.48
05/22 15:00      0.00     41.89     51731     13.53
05/22 16:00      0.00     41.86     51552     13.48
05/22 17:00      0.00     41.89     51731     13.30
05/22 18:00      0.00     41.75     50893     13.53
05/22 19:00      0.00     41.87     51611     13.36
05/22 20:00      0.00     41.75     50893     12.95
05/22 21:00      0.00     41.68     50476     12.89
05/22 22:00      0.00     41.59     49944     12.83
05/22 23:00      0.55     41.57     49826     12.83